Time;durP1;ratioP1;P1;durP2;ratioP2;P2;SDS_P1;SDS_P2;PMS_P1;PMS_P2;Temp;Humidity;BMP_temperature;BMP_pressure;BME280_temperature;BME280_humidity;BME280_pressure;Samples;Min_cycle;Max_cycle;Signal;HPM_P1;HPM_P2
2023/03/25 00:01:00;;;;;;;9.00;2.78;;;;;;;;;;4990363;28;20084;-74
2023/03/25 00:03:29;;;;;;;7.03;2.47;;;;;;;;;;4990160;28;20433;-73
2023/03/25 00:05:56;;;;;;;7.10;2.42;;;;;;;;;;4990481;28;20534;-70
2023/03/25 00:08:23;;;;;;;7.05;2.60;;;;;;;;;;4990564;28;20031;-73
2023/03/25 00:10:58;;;;;;;10.20;2.92;;;;;;;;;;4990408;28;20022;-70
2023/03/25 00:13:24;;;;;;;6.80;2.53;;;;;;;;;;4990422;28;20037;-71
2023/03/25 00:15:52;;;;;;;6.80;2.67;;;;;;;;;;4990453;28;20034;-70
2023/03/25 00:18:19;;;;;;;9.43;2.80;;;;;;;;;;4990287;28;20025;-73
2023/03/25 00:20:48;;;;;;;10.65;2.80;;;;;;;;;;4990291;28;20540;-70
2023/03/25 00:23:18;;;;;;;9.88;3.25;;;;;;;;;;4994143;28;20109;-72
2023/03/25 00:25:43;;;;;;;7.70;2.72;;;;;;;;;;4994351;28;20046;-71
2023/03/25 00:28:10;;;;;;;6.45;2.40;;;;;;;;;;4994139;28;20498;-71
2023/03/25 00:30:37;;;;;;;10.30;2.80;;;;;;;;;;4994031;28;20037;-71
2023/03/25 00:33:02;;;;;;;6.82;2.53;;;;;;;;;;4993835;28;20034;-70
2023/03/25 00:35:28;;;;;;;7.00;2.75;;;;;;;;;;4992567;28;20363;-71
2023/03/25 00:37:58;;;;;;;7.22;2.40;;;;;;;;;;4993852;28;20517;-77
2023/03/25 00:40:33;;;;;;;8.90;2.80;;;;;;;;;;4993827;28;20072;-72
2023/03/25 00:42:59;;;;;;;8.52;2.50;;;;;;;;;;4993901;28;20063;-71
2023/03/25 00:45:24;;;;;;;6.72;2.38;;;;;;;;;;4993616;28;20061;-70
2023/03/25 00:47:50;;;;;;;5.57;2.00;;;;;;;;;;4993750;28;20494;-70
2023/03/25 00:50:15;;;;;;;6.80;2.10;;;;;;;;;;4993814;28;20050;-69
2023/03/25 00:52:41;;;;;;;6.32;2.38;;;;;;;;;;4993015;28;20173;-69
2023/03/25 00:55:07;;;;;;;5.40;2.20;;;;;;;;;;4993639;28;20033;-68
2023/03/25 00:57:32;;;;;;;6.47;2.20;;;;;;;;;;4993787;28;20393;-68
2023/03/25 00:59:58;;;;;;;9.48;2.10;;;;;;;;;;4993522;28;20035;-70
2023/03/25 01:02:24;;;;;;;6.13;2.13;;;;;;;;;;4993372;28;20038;-69
2023/03/25 01:04:50;;;;;;;5.57;1.92;;;;;;;;;;4993532;28;20470;-69
2023/03/25 01:07:16;;;;;;;7.15;2.35;;;;;;;;;;4993381;28;20030;-69
2023/03/25 01:09:45;;;;;;;10.90;2.50;;;;;;;;;;4993242;28;20033;-71
2023/03/25 01:12:10;;;;;;;7.05;2.30;;;;;;;;;;4993075;28;20509;-70
2023/03/25 01:14:36;;;;;;;6.25;1.95;;;;;;;;;;4993335;28;20022;-70
2023/03/25 01:17:01;;;;;;;8.65;2.20;;;;;;;;;;4993146;28;20684;-71
2023/03/25 01:19:27;;;;;;;6.07;2.20;;;;;;;;;;4993247;28;20026;-70
2023/03/25 01:21:52;;;;;;;8.43;2.20;;;;;;;;;;4993131;28;20030;-71
2023/03/25 01:24:18;;;;;;;7.38;1.90;;;;;;;;;;4992897;28;20027;-69
2023/03/25 01:26:44;;;;;;;8.90;2.08;;;;;;;;;;4993127;28;20023;-70
2023/03/25 01:29:11;;;;;;;9.15;2.17;;;;;;;;;;4992795;28;20064;-73
2023/03/25 01:31:37;;;;;;;7.38;2.35;;;;;;;;;;4992937;28;20104;-70
2023/03/25 01:34:03;;;;;;;6.80;2.05;;;;;;;;;;4991654;28;20442;-70
2023/03/25 01:36:29;;;;;;;5.47;1.80;;;;;;;;;;4992894;28;20069;-71
2023/03/25 01:38:57;;;;;;;7.43;1.95;;;;;;;;;;4992993;28;20460;-70
2023/03/25 01:41:22;;;;;;;6.45;2.00;;;;;;;;;;4992687;28;20394;-71
2023/03/25 01:44:23;;;;;;;7.13;1.70;;;;;;;;;;4992590;28;20026;-70
2023/03/25 01:46:51;;;;;;;6.68;2.00;;;;;;;;;;4934163;28;20085;-70
2023/03/25 01:49:45;;;;;;;7.72;1.90;;;;;;;;;;4992764;28;20104;-70
2023/03/25 01:52:15;;;;;;;4.85;1.70;;;;;;;;;;4992396;28;20061;-70
2023/03/25 01:54:42;;;;;;;5.55;2.13;;;;;;;;;;4992415;28;20037;-72
2023/03/25 01:57:10;;;;;;;5.22;1.80;;;;;;;;;;4992723;28;20509;-72
2023/03/25 01:59:37;;;;;;;6.47;2.15;;;;;;;;;;4992566;28;20034;-70
2023/03/25 02:02:05;;;;;;;9.25;1.80;;;;;;;;;;4992412;28;20026;-70
2023/03/25 02:05:09;;;;;;;8.10;1.80;;;;;;;;;;4992103;28;20081;-71
2023/03/25 02:07:41;;;;;;;5.65;1.80;;;;;;;;;;4952302;28;20121;-70
2023/03/25 02:10:08;;;;;;;7.50;2.35;;;;;;;;;;4992304;28;20038;-71
2023/03/25 02:12:33;;;;;;;5.25;1.80;;;;;;;;;;4992213;28;20026;-69
2023/03/25 02:15:01;;;;;;;5.07;1.65;;;;;;;;;;4992420;28;20497;-77
2023/03/25 02:17:47;;;;;;;6.93;1.60;;;;;;;;;;4992049;28;20065;-70
2023/03/25 02:20:21;;;;;;;5.97;1.70;;;;;;;;;;4992028;28;20061;-72
2023/03/25 02:22:58;;;;;;;5.75;1.50;;;;;;;;;;4991689;28;20073;-71
2023/03/25 02:25:39;;;;;;;5.95;1.90;;;;;;;;;;4991991;28;20100;-72
2023/03/25 02:28:04;;;;;;;3.88;1.48;;;;;;;;;;4992041;28;20109;-70
2023/03/25 02:30:30;;;;;;;8.38;1.98;;;;;;;;;;4991995;28;20554;-69
2023/03/25 02:33:21;;;;;;;5.38;1.60;;;;;;;;;;4992107;28;20669;-75
2023/03/25 02:35:48;;;;;;;;;;;;;;;;;;4992276;28;20050;-70
2023/03/25 02:38:44;;;;;;;6.05;1.50;;;;;;;;;;4991818;28;19913;-73
2023/03/25 02:41:54;;;;;;;5.82;1.50;;;;;;;;;;4991527;28;20034;-70
2023/03/25 02:44:36;;;;;;;7.57;1.50;;;;;;;;;;4971260;28;20077;-76
2023/03/25 02:47:07;;;;;;;5.90;1.50;;;;;;;;;;4991695;28;20036;-72
2023/03/25 02:49:40;;;;;;;5.05;1.40;;;;;;;;;;4991823;28;20042;-71
2023/03/25 02:52:24;;;;;;;6.25;1.25;;;;;;;;;;4991396;28;20036;-71
2023/03/25 02:54:52;;;;;;;5.75;1.50;;;;;;;;;;4991284;28;20053;-73
2023/03/25 02:57:20;;;;;;;5.80;1.45;;;;;;;;;;4991285;28;20030;-72
2023/03/25 02:59:47;;;;;;;8.05;1.83;;;;;;;;;;4991292;28;20026;-72
2023/03/25 03:02:14;;;;;;;5.32;1.40;;;;;;;;;;4991314;28;20516;-71
2023/03/25 03:04:58;;;;;;;8.43;1.70;;;;;;;;;;4991272;28;20085;-71
2023/03/25 03:07:26;;;;;;;4.20;1.48;;;;;;;;;;4991035;28;20037;-72
2023/03/25 03:10:21;;;;;;;7.07;1.60;;;;;;;;;;4991084;28;20367;-70
2023/03/25 03:13:14;;;;;;;5.47;1.33;;;;;;;;;;4991045;28;20117;-70
2023/03/25 03:15:54;;;;;;;4.65;1.40;;;;;;;;;;4990959;28;20030;-70
2023/03/25 03:18:25;;;;;;;5.40;1.38;;;;;;;;;;4991046;28;20034;-71
2023/03/25 03:21:06;;;;;;;5.50;1.27;;;;;;;;;;4991116;28;20117;-70
2023/03/25 03:23:44;;;;;;;5.32;1.50;;;;;;;;;;4990910;28;20026;-69
2023/03/25 03:26:27;;;;;;;5.05;1.20;;;;;;;;;;4991124;28;20038;-70
2023/03/25 03:29:14;;;;;;;5.20;1.40;;;;;;;;;;4990860;28;20039;-70
2023/03/25 03:31:45;;;;;;;4.32;1.30;;;;;;;;;;4991159;28;20355;-70
2023/03/25 03:34:13;;;;;;;;;;;;;;;;;;4991773;28;20037;-70
2023/03/25 03:36:47;;;;;;;5.43;1.42;;;;;;;;;;4990952;28;19976;-70
2023/03/25 03:39:31;;;;;;;5.43;1.50;;;;;;;;;;4990994;28;20023;-69
2023/03/25 03:42:03;;;;;;;6.97;1.58;;;;;;;;;;4990905;28;20045;-71
2023/03/25 03:44:33;;;;;;;3.47;1.20;;;;;;;;;;4990689;28;20022;-72
2023/03/25 03:47:04;;;;;;;4.57;1.40;;;;;;;;;;4990718;28;20027;-70
2023/03/25 03:49:41;;;;;;;7.97;1.67;;;;;;;;;;4990635;28;20026;-71
2023/03/25 03:52:10;;;;;;;6.60;1.58;;;;;;;;;;4990298;28;20026;-71
2023/03/25 03:54:49;;;;;;;4.50;1.40;;;;;;;;;;4990577;28;20034;-70
2023/03/25 03:57:21;;;;;;;5.47;1.20;;;;;;;;;;4993118;28;20034;-72
2023/03/25 03:59:57;;;;;;;6.85;1.60;;;;;;;;;;4994756;28;20030;-74
2023/03/25 04:02:31;;;;;;;4.60;1.27;;;;;;;;;;4994630;28;20089;-70
2023/03/25 04:04:59;;;;;;;5.07;1.52;;;;;;;;;;4994587;28;20133;-72
2023/03/25 04:07:53;;;;;;;6.35;1.40;;;;;;;;;;4994377;28;20022;-71
2023/03/25 04:10:38;;;;;;;3.83;1.10;;;;;;;;;;4994324;28;20038;-72
2023/03/25 04:13:09;;;;;;;4.63;1.77;;;;;;;;;;4994475;28;20109;-72
2023/03/25 04:15:35;;;;;;;7.55;1.75;;;;;;;;;;4994350;28;20097;-70
2023/03/25 04:18:02;;;;;;;6.45;1.55;;;;;;;;;;4994509;28;20034;-71
2023/03/25 04:20:32;;;;;;;5.75;1.65;;;;;;;;;;4994179;28;20149;-71
2023/03/25 04:22:58;;;;;;;4.75;1.38;;;;;;;;;;4994148;28;20057;-72
2023/03/25 04:25:24;;;;;;;6.25;1.50;;;;;;;;;;4993896;28;20077;-71
2023/03/25 04:27:52;;;;;;;6.80;1.70;;;;;;;;;;4994118;28;20030;-71
2023/03/25 04:30:18;;;;;;;3.92;1.48;;;;;;;;;;4994177;28;20022;-71
2023/03/25 04:32:45;;;;;;;7.50;1.70;;;;;;;;;;4994282;28;20234;-69
2023/03/25 04:35:12;;;;;;;6.28;1.60;;;;;;;;;;4994029;28;20030;-72
2023/03/25 04:37:38;;;;;;;4.70;1.60;;;;;;;;;;4994114;28;20378;-71
2023/03/25 04:40:05;;;;;;;7.38;1.88;;;;;;;;;;4993939;28;20037;-70
2023/03/25 04:42:36;;;;;;;7.35;1.48;;;;;;;;;;4993938;28;20034;-73
2023/03/25 04:45:04;;;;;;;7.03;1.52;;;;;;;;;;4993618;28;20034;-71
2023/03/25 04:47:30;;;;;;;6.68;1.83;;;;;;;;;;4993811;28;20035;-69
2023/03/25 04:49:56;;;;;;;7.72;1.88;;;;;;;;;;4992694;28;20728;-69
2023/03/25 04:52:21;;;;;;;7.10;1.60;;;;;;;;;;4993458;28;20593;-69
2023/03/25 04:54:47;;;;;;;4.30;1.38;;;;;;;;;;4993414;28;20462;-71
2023/03/25 04:57:12;;;;;;;8.43;1.85;;;;;;;;;;4993620;28;20026;-71
2023/03/25 04:59:37;;;;;;;6.38;1.40;;;;;;;;;;4993447;28;20031;-73
2023/03/25 05:02:05;;;;;;;6.45;1.58;;;;;;;;;;4993188;28;20073;-73
2023/03/25 05:04:31;;;;;;;5.70;1.55;;;;;;;;;;4993427;28;20117;-77
2023/03/25 05:06:57;;;;;;;5.85;1.52;;;;;;;;;;4993406;28;20034;-71
2023/03/25 05:09:22;;;;;;;5.80;1.50;;;;;;;;;;4993471;28;20023;-70
2023/03/25 05:11:48;;;;;;;6.32;2.10;;;;;;;;;;4993363;28;20034;-70
2023/03/25 05:14:16;;;;;;;4.35;1.50;;;;;;;;;;4993272;28;20065;-69
2023/03/25 05:16:42;;;;;;;6.53;1.40;;;;;;;;;;4993207;28;20026;-70
2023/03/25 05:19:08;;;;;;;5.18;1.40;;;;;;;;;;4993043;28;20057;-70
2023/03/25 05:21:34;;;;;;;4.65;1.48;;;;;;;;;;4993054;28;20054;-70
2023/03/25 05:24:01;;;;;;;6.20;1.60;;;;;;;;;;4993176;28;20038;-73
2023/03/25 05:26:33;;;;;;;5.55;1.55;;;;;;;;;;4993118;28;20026;-70
2023/03/25 05:29:03;;;;;;;8.50;1.48;;;;;;;;;;4993174;28;20026;-69
2023/03/25 05:31:28;;;;;;;4.88;1.40;;;;;;;;;;4992829;28;20038;-74
2023/03/25 05:33:54;;;;;;;6.47;1.52;;;;;;;;;;4993058;28;20088;-70
2023/03/25 05:36:23;;;;;;;6.78;1.50;;;;;;;;;;4992517;28;20117;-71
2023/03/25 05:38:50;;;;;;;3.80;1.38;;;;;;;;;;4975452;28;20034;-71
2023/03/25 05:41:15;;;;;;;4.93;1.40;;;;;;;;;;4992747;28;20041;-71
2023/03/25 05:43:45;;;;;;;5.78;1.50;;;;;;;;;;4992815;28;20023;-72
2023/03/25 05:46:11;;;;;;;4.13;1.20;;;;;;;;;;4992584;28;20030;-70
2023/03/25 05:48:36;;;;;;;5.07;1.48;;;;;;;;;;4992906;28;20037;-71
2023/03/25 05:51:04;;;;;;;5.15;1.40;;;;;;;;;;4992562;28;20026;-70
2023/03/25 05:53:31;;;;;;;8.98;1.70;;;;;;;;;;4992302;28;20398;-72
2023/03/25 05:55:58;;;;;;;6.57;1.40;;;;;;;;;;4992349;28;20045;-70
2023/03/25 05:58:24;;;;;;;4.28;1.38;;;;;;;;;;4992546;28;20517;-69
2023/03/25 06:00:50;;;;;;;5.13;1.50;;;;;;;;;;4992745;28;20034;-72
2023/03/25 06:03:19;;;;;;;5.57;1.50;;;;;;;;;;4992459;28;20378;-74
2023/03/25 06:05:46;;;;;;;5.85;1.30;;;;;;;;;;4992297;28;20033;-73
2023/03/25 06:08:12;;;;;;;7.40;1.42;;;;;;;;;;4992396;28;20040;-69
2023/03/25 06:10:38;;;;;;;3.88;1.30;;;;;;;;;;4992033;28;20023;-72
2023/03/25 06:13:03;;;;;;;5.00;1.50;;;;;;;;;;4992034;28;20059;-73
2023/03/25 06:15:32;;;;;;;4.72;1.45;;;;;;;;;;4991951;28;20030;-70
2023/03/25 06:17:58;;;;;;;4.32;1.17;;;;;;;;;;4992510;28;20022;-69
2023/03/25 06:20:25;;;;;;;4.85;1.45;;;;;;;;;;4991601;28;20476;-70
2023/03/25 06:22:51;;;;;;;6.03;1.60;;;;;;;;;;4992160;28;20026;-73
2023/03/25 06:25:19;;;;;;;5.25;1.40;;;;;;;;;;4991704;28;20096;-77
2023/03/25 06:27:47;;;;;;;7.05;1.45;;;;;;;;;;4991820;28;20030;-70
2023/03/25 06:30:17;;;;;;;3.70;1.35;;;;;;;;;;4991722;28;20033;-72
2023/03/25 06:32:42;;;;;;;5.05;1.30;;;;;;;;;;4992019;28;20033;-69
2023/03/25 06:35:10;;;;;;;3.80;1.23;;;;;;;;;;4991643;28;20022;-75
2023/03/25 06:37:36;;;;;;;5.10;1.55;;;;;;;;;;4991743;28;20026;-74
2023/03/25 06:40:04;;;;;;;4.88;1.30;;;;;;;;;;4991837;28;20474;-69
2023/03/25 06:42:29;;;;;;;6.65;1.50;;;;;;;;;;4992001;28;20138;-71
2023/03/25 06:44:55;;;;;;;7.75;1.52;;;;;;;;;;4991583;28;20061;-74
2023/03/25 06:47:21;;;;;;;11.70;1.50;;;;;;;;;;4991732;28;20018;-71
2023/03/25 06:49:46;;;;;;;3.88;1.20;;;;;;;;;;4991788;28;20104;-71
2023/03/25 06:52:12;;;;;;;6.28;1.40;;;;;;;;;;4991327;28;20161;-72
2023/03/25 06:54:38;;;;;;;7.07;1.40;;;;;;;;;;4991562;28;20054;-70
2023/03/25 06:57:04;;;;;;;5.45;1.50;;;;;;;;;;4991370;28;20537;-72
2023/03/25 06:59:30;;;;;;;3.63;1.50;;;;;;;;;;4991517;28;20029;-71
2023/03/25 07:01:56;;;;;;;4.75;1.38;;;;;;;;;;4991168;28;20034;-71
2023/03/25 07:04:21;;;;;;;5.10;1.75;;;;;;;;;;4991112;28;20029;-70
2023/03/25 07:06:47;;;;;;;3.72;1.30;;;;;;;;;;4990982;28;20385;-73
2023/03/25 07:09:12;;;;;;;4.95;1.70;;;;;;;;;;4991142;28;20025;-70
2023/03/25 07:11:38;;;;;;;3.92;1.60;;;;;;;;;;4991295;28;20507;-70
2023/03/25 07:14:03;;;;;;;6.03;1.90;;;;;;;;;;4991586;28;20037;-70
2023/03/25 07:16:29;;;;;;;5.25;1.85;;;;;;;;;;4990894;28;20027;-71
2023/03/25 07:18:55;;;;;;;5.80;1.80;;;;;;;;;;4991008;28;20069;-70
2023/03/25 07:21:21;;;;;;;6.28;1.38;;;;;;;;;;4990790;28;20045;-70
2023/03/25 07:23:46;;;;;;;6.80;1.48;;;;;;;;;;4990849;28;20500;-70
2023/03/25 07:26:15;;;;;;;5.47;1.40;;;;;;;;;;4990892;28;20031;-71
2023/03/25 07:28:40;;;;;;;3.60;1.52;;;;;;;;;;4991131;28;20478;-73
2023/03/25 07:31:12;;;;;;;5.20;1.42;;;;;;;;;;4972635;28;20022;-70
2023/03/25 07:33:37;;;;;;;5.15;1.35;;;;;;;;;;4990774;28;20181;-72
2023/03/25 07:36:05;;;;;;;6.13;1.50;;;;;;;;;;4990347;28;20706;-70
2023/03/25 07:38:31;;;;;;;8.30;1.50;;;;;;;;;;4990757;28;20014;-70
2023/03/25 07:40:56;;;;;;;3.50;1.50;;;;;;;;;;4990573;28;20031;-71
2023/03/25 07:43:21;;;;;;;5.68;1.40;;;;;;;;;;4990608;28;20088;-71
2023/03/25 07:45:47;;;;;;;3.97;1.50;;;;;;;;;;4990754;28;20467;-69
2023/03/25 07:48:13;;;;;;;9.32;2.92;;;;;;;;;;4990868;28;20030;-77
2023/03/25 07:50:39;;;;;;;10.68;3.28;;;;;;;;;;4990534;28;20378;-72
2023/03/25 07:53:04;;;;;;;7.47;3.00;;;;;;;;;;4990534;28;20074;-71
2023/03/25 07:55:30;;;;;;;7.43;3.00;;;;;;;;;;4990390;28;20022;-74
2023/03/25 07:57:57;;;;;;;11.73;2.53;;;;;;;;;;4990527;28;20080;-69
2023/03/25 08:00:23;;;;;;;4.78;2.00;;;;;;;;;;4990405;28;20065;-69
2023/03/25 08:02:48;;;;;;;6.45;2.00;;;;;;;;;;4990701;28;20435;-73
2023/03/25 08:05:20;;;;;;;6.43;1.92;;;;;;;;;;4990391;28;20026;-73
2023/03/25 08:07:49;;;;;;;6.93;1.50;;;;;;;;;;4990641;28;20061;-70
2023/03/25 08:10:15;;;;;;;5.65;1.50;;;;;;;;;;4990663;28;20026;-72
2023/03/25 08:12:41;;;;;;;4.47;1.63;;;;;;;;;;4990227;28;20154;-74
2023/03/25 08:15:07;;;;;;;8.73;1.40;;;;;;;;;;4990148;28;20117;-72
2023/03/25 08:17:33;;;;;;;6.65;1.67;;;;;;;;;;4990290;28;20030;-74
2023/03/25 08:19:59;;;;;;;6.10;1.25;;;;;;;;;;4990397;28;20033;-72
2023/03/25 08:22:26;;;;;;;4.20;1.58;;;;;;;;;;4990394;28;20101;-70
2023/03/25 08:24:51;;;;;;;7.00;1.42;;;;;;;;;;4990623;28;20027;-70
2023/03/25 08:27:17;;;;;;;6.57;1.20;;;;;;;;;;4990369;28;20037;-72
2023/03/25 08:29:43;;;;;;;7.63;1.50;;;;;;;;;;4990167;28;20100;-70
2023/03/25 08:32:09;;;;;;;5.30;1.55;;;;;;;;;;4990402;28;20552;-73
2023/03/25 08:34:38;;;;;;;9.27;1.40;;;;;;;;;;4990212;28;20054;-71
2023/03/25 08:37:06;;;;;;;4.78;1.40;;;;;;;;;;4990222;28;20027;-71
2023/03/25 08:39:38;;;;;;;8.10;1.40;;;;;;;;;;4990374;28;20037;-71
2023/03/25 08:42:07;;;;;;;5.68;1.38;;;;;;;;;;4990562;28;20038;-71
2023/03/25 08:44:33;;;;;;;6.63;1.38;;;;;;;;;;4993857;28;20034;-70
2023/03/25 08:46:59;;;;;;;7.28;1.50;;;;;;;;;;4993576;28;20417;-71
2023/03/25 08:49:24;;;;;;;8.18;1.83;;;;;;;;;;4993505;28;20049;-70
2023/03/25 08:51:50;;;;;;;4.88;1.08;;;;;;;;;;4993399;28;20038;-69
2023/03/25 08:54:15;;;;;;;5.05;1.05;;;;;;;;;;4993404;28;20038;-70
2023/03/25 08:56:41;;;;;;;11.43;1.42;;;;;;;;;;4993657;28;20030;-69
2023/03/25 08:59:06;;;;;;;7.07;1.27;;;;;;;;;;4993713;28;20031;-71
2023/03/25 09:01:32;;;;;;;6.55;1.40;;;;;;;;;;4975894;28;20107;-72
2023/03/25 09:03:57;;;;;;;7.15;1.20;;;;;;;;;;4993602;28;20498;-69
2023/03/25 09:06:23;;;;;;;8.60;1.58;;;;;;;;;;4992938;28;20034;-71
2023/03/25 09:08:48;;;;;;;6.97;1.30;;;;;;;;;;4993264;28;20449;-70
2023/03/25 09:11:15;;;;;;;7.07;1.20;;;;;;;;;;4993237;28;20053;-71
2023/03/25 09:13:41;;;;;;;9.77;1.45;;;;;;;;;;4993249;28;20030;-71
2023/03/25 09:16:07;;;;;;;5.93;1.20;;;;;;;;;;4993122;28;20084;-74
2023/03/25 09:18:35;;;;;;;4.13;1.08;;;;;;;;;;4975748;28;20026;-69
2023/03/25 09:21:01;;;;;;;6.03;1.30;;;;;;;;;;4992859;28;20516;-71
2023/03/25 09:23:27;;;;;;;6.90;1.40;;;;;;;;;;4975621;28;20045;-72
2023/03/25 09:25:52;;;;;;;6.30;1.15;;;;;;;;;;4992731;28;20385;-71
2023/03/25 09:28:18;;;;;;;4.72;1.10;;;;;;;;;;4974895;28;20042;-71
2023/03/25 09:30:43;;;;;;;7.57;1.40;;;;;;;;;;4993124;28;20030;-73
2023/03/25 09:33:09;;;;;;;8.52;1.58;;;;;;;;;;4993023;28;20422;-70
2023/03/25 09:35:34;;;;;;;6.75;1.55;;;;;;;;;;4992906;28;20022;-70
2023/03/25 09:38:00;;;;;;;8.73;1.48;;;;;;;;;;4992690;28;20022;-72
2023/03/25 09:40:25;;;;;;;9.02;1.50;;;;;;;;;;4992542;28;20501;-76
2023/03/25 09:43:43;;;;;;;7.72;1.40;;;;;;;;;;4992562;28;20070;-71
2023/03/25 09:46:09;;;;;;;8.70;1.50;;;;;;;;;;4947396;28;20034;-71
2023/03/25 09:48:41;;;;;;;7.78;1.65;;;;;;;;;;4991371;28;20073;-71
2023/03/25 09:51:16;;;;;;;8.23;1.42;;;;;;;;;;4991334;28;20509;-74
2023/03/25 09:53:50;;;;;;;6.88;1.55;;;;;;;;;;4991465;28;20049;-70
2023/03/25 09:56:19;;;;;;;7.65;1.40;;;;;;;;;;4992323;28;20022;-71
2023/03/25 09:58:47;;;;;;;8.80;1.70;;;;;;;;;;4992171;28;20086;-71
2023/03/25 10:01:21;;;;;;;7.50;1.42;;;;;;;;;;4992081;28;20161;-69
2023/03/25 10:03:54;;;;;;;8.95;1.88;;;;;;;;;;4992264;28;20033;-75
2023/03/25 10:06:20;;;;;;;8.25;1.48;;;;;;;;;;4992066;28;20230;-71
2023/03/25 10:08:58;;;;;;;10.30;1.77;;;;;;;;;;4992554;28;20074;-70
2023/03/25 10:11:42;;;;;;;8.40;1.80;;;;;;;;;;4992195;28;20058;-70
2023/03/25 10:14:24;;;;;;;8.95;1.70;;;;;;;;;;4991964;28;20062;-70
2023/03/25 10:17:04;;;;;;;7.25;1.38;;;;;;;;;;4991865;28;20069;-74
2023/03/25 10:20:11;;;;;;;8.95;1.90;;;;;;;;;;4992078;28;20038;-73
2023/03/25 10:22:55;;;;;;;9.40;1.60;;;;;;;;;;4988288;28;20117;-74
2023/03/25 10:25:26;;;;;;;7.93;1.48;;;;;;;;;;4991913;28;20504;-70
2023/03/25 10:27:52;;;;;;;11.35;1.65;;;;;;;;;;4991813;28;20038;-70
2023/03/25 10:30:22;;;;;;;9.75;1.77;;;;;;;;;;4991837;28;20123;-71
2023/03/25 10:32:54;;;;;;;8.20;1.50;;;;;;;;;;4991819;28;20034;-71
2023/03/25 10:35:36;;;;;;;8.35;1.58;;;;;;;;;;4991575;28;20025;-75
2023/03/25 10:38:19;;;;;;;12.52;1.60;;;;;;;;;;4991520;28;20033;-70
2023/03/25 10:40:49;;;;;;;11.77;1.52;;;;;;;;;;4991717;28;20040;-70
2023/03/25 10:43:28;;;;;;;9.18;1.52;;;;;;;;;;4991806;28;20034;-76
2023/03/25 10:46:32;;;;;;;9.00;1.50;;;;;;;;;;4991844;28;20545;-73
2023/03/25 10:48:58;;;;;;;8.00;1.42;;;;;;;;;;4987753;28;20038;-71
2023/03/25 10:51:29;;;;;;;7.95;1.50;;;;;;;;;;4989994;28;20113;-74
2023/03/25 10:53:55;;;;;;;6.70;1.60;;;;;;;;;;4973639;28;20042;-70
2023/03/25 10:56:31;;;;;;;8.38;1.70;;;;;;;;;;4991334;28;20026;-73
2023/03/25 10:58:59;;;;;;;11.57;1.95;;;;;;;;;;4991598;28;20042;-72
2023/03/25 11:01:35;;;;;;;6.95;1.50;;;;;;;;;;4991448;28;20040;-73
2023/03/25 11:04:03;;;;;;;9.13;1.40;;;;;;;;;;4991721;28;20378;-70
2023/03/25 11:06:33;;;;;;;7.03;1.55;;;;;;;;;;4990707;28;20028;-77
2023/03/25 11:09:29;;;;;;;11.32;1.85;;;;;;;;;;4991199;28;20033;-71
2023/03/25 11:11:55;;;;;;;8.68;1.48;;;;;;;;;;4991082;28;20054;-74
2023/03/25 11:14:26;;;;;;;8.43;1.65;;;;;;;;;;4990753;28;20513;-69
2023/03/25 11:17:02;;;;;;;9.65;1.63;;;;;;;;;;4973398;28;20394;-70
2023/03/25 11:19:59;;;;;;;9.82;2.20;;;;;;;;;;4991149;28;20363;-70
2023/03/25 11:22:28;;;;;;;7.28;1.52;;;;;;;;;;4990851;28;20080;-69
2023/03/25 11:25:23;;;;;;;8.02;1.33;;;;;;;;;;4990985;28;20030;-69
2023/03/25 11:27:58;;;;;;;8.20;1.30;;;;;;;;;;4988429;28;20101;-70
2023/03/25 11:30:25;;;;;;;5.18;1.40;;;;;;;;;;4990743;28;20401;-71
2023/03/25 11:33:17;;;;;;;7.80;1.45;;;;;;;;;;4991033;28;20022;-74
2023/03/25 11:35:45;;;;;;;7.65;1.70;;;;;;;;;;4987096;28;20030;-73
2023/03/25 11:38:22;;;;;;;9.15;1.60;;;;;;;;;;4990741;28;20034;-70
2023/03/25 11:40:54;;;;;;;10.63;1.98;;;;;;;;;;4990691;28;20159;-70
2023/03/25 11:43:22;;;;;;;8.30;1.52;;;;;;;;;;4989298;28;20030;-72
2023/03/25 11:45:48;;;;;;;8.82;1.67;;;;;;;;;;4990736;28;20105;-71
2023/03/25 11:48:20;;;;;;;8.40;1.58;;;;;;;;;;4990490;28;20053;-72
2023/03/25 11:50:58;;;;;;;7.13;1.73;;;;;;;;;;4990792;28;20539;-72
2023/03/25 11:53:26;;;;;;;8.82;1.48;;;;;;;;;;4990638;28;20042;-71
2023/03/25 11:55:59;;;;;;;9.68;1.73;;;;;;;;;;4990792;28;20031;-73
2023/03/25 11:58:30;;;;;;;6.63;1.65;;;;;;;;;;4990553;28;20029;-79
2023/03/25 12:01:05;;;;;;;7.38;1.50;;;;;;;;;;4990522;28;20030;-71
2023/03/25 12:03:33;;;;;;;13.48;1.80;;;;;;;;;;4990594;28;20041;-74
2023/03/25 12:06:15;;;;;;;8.07;1.95;;;;;;;;;;4990233;28;20026;-81
2023/03/25 12:08:52;;;;;;;8.85;1.33;;;;;;;;;;4990489;28;20026;-71
2023/03/25 12:11:28;;;;;;;6.38;1.80;;;;;;;;;;4990692;28;20042;-75
2023/03/25 12:14:17;;;;;;;9.20;1.65;;;;;;;;;;4990634;28;20073;-72
2023/03/25 12:16:59;;;;;;;8.65;1.70;;;;;;;;;;4990581;28;20108;-73
2023/03/25 12:19:37;;;;;;;7.65;1.55;;;;;;;;;;4992681;28;20108;-77
2023/03/25 12:22:21;;;;;;;9.85;1.95;;;;;;;;;;4993924;28;20092;-73
2023/03/25 12:25:21;;;;;;;10.00;1.70;;;;;;;;;;4994178;28;20054;-77
2023/03/25 12:28:08;;;;;;;6.93;1.52;;;;;;;;;;4953649;28;20042;-72
2023/03/25 12:30:47;;;;;;;10.50;1.88;;;;;;;;;;4994217;28;20038;-71
2023/03/25 12:33:34;;;;;;;5.85;1.50;;;;;;;;;;4992926;28;20074;-75
2023/03/25 12:36:24;;;;;;;7.65;1.58;;;;;;;;;;4993830;28;20046;-73
2023/03/25 12:39:22;;;;;;;6.25;1.30;;;;;;;;;;4993766;28;20074;-71
2023/03/25 12:42:02;;;;;;;7.43;1.67;;;;;;;;;;4993903;28;20026;-71
2023/03/25 12:45:12;;;;;;;7.07;1.63;;;;;;;;;;4993854;28;20070;-80
2023/03/25 12:47:46;;;;;;;9.05;1.70;;;;;;;;;;4989718;28;20133;-72
2023/03/25 12:50:40;;;;;;;6.88;1.48;;;;;;;;;;4993545;28;20045;-72
2023/03/25 12:53:25;;;;;;;6.00;1.50;;;;;;;;;;4993333;28;20133;-75
2023/03/25 12:56:18;;;;;;;7.10;1.30;;;;;;;;;;4993600;28;20025;-71
2023/03/25 12:59:07;;;;;;;8.63;1.52;;;;;;;;;;4993331;28;20108;-72
2023/03/25 13:01:50;;;;;;;6.63;1.40;;;;;;;;;;4993588;28;20110;-70
2023/03/25 13:04:22;;;;;;;8.07;1.48;;;;;;;;;;4993545;28;20037;-72
2023/03/25 13:07:05;;;;;;;8.85;1.70;;;;;;;;;;4993137;28;20042;-71
2023/03/25 13:09:53;;;;;;;8.50;1.60;;;;;;;;;;4993135;28;20034;-77
2023/03/25 13:12:45;;;;;;;7.10;1.60;;;;;;;;;;4993380;28;20023;-72
2023/03/25 13:15:29;;;;;;;7.55;1.40;;;;;;;;;;4993108;28;20119;-78
2023/03/25 13:18:00;;;;;;;7.30;1.42;;;;;;;;;;4993063;28;20037;-73
2023/03/25 13:20:30;;;;;;;6.07;1.52;;;;;;;;;;4993139;28;20088;-72
2023/03/25 13:23:00;;;;;;;7.90;1.63;;;;;;;;;;4993356;28;20026;-71
2023/03/25 13:25:35;;;;;;;5.55;1.40;;;;;;;;;;4993217;28;20080;-74
2023/03/25 13:28:05;;;;;;;7.72;1.70;;;;;;;;;;4991390;28;20533;-72
2023/03/25 13:30:35;;;;;;;6.57;1.50;;;;;;;;;;4992825;28;20026;-72
2023/03/25 13:33:13;;;;;;;4.75;1.20;;;;;;;;;;4992719;28;20030;-70
2023/03/25 13:35:51;;;;;;;5.93;1.30;;;;;;;;;;4992941;28;20049;-71
2023/03/25 13:38:28;;;;;;;6.60;1.33;;;;;;;;;;4992706;28;20390;-70
2023/03/25 13:41:18;;;;;;;9.82;1.73;;;;;;;;;;4992841;28;20038;-70
2023/03/25 13:44:22;;;;;;;10.77;1.58;;;;;;;;;;4992838;28;20038;-70
2023/03/25 13:47:04;;;;;;;9.90;1.33;;;;;;;;;;4991765;28;20042;-71
2023/03/25 13:49:45;;;;;;;7.50;1.50;;;;;;;;;;4975040;28;20033;-70
2023/03/25 13:52:13;;;;;;;8.25;1.67;;;;;;;;;;4992179;28;20085;-70
2023/03/25 13:54:55;;;;;;;6.90;1.95;;;;;;;;;;4992567;28;20022;-73
2023/03/25 13:58:02;;;;;;;10.98;1.70;;;;;;;;;;4992623;28;20057;-70
2023/03/25 14:00:28;;;;;;;9.23;1.67;;;;;;;;;;4992589;28;20034;-71
2023/03/25 14:03:17;;;;;;;7.45;1.38;;;;;;;;;;4992449;28;20089;-70
2023/03/25 14:06:04;;;;;;;9.30;1.65;;;;;;;;;;4992250;28;20042;-72
2023/03/25 14:08:32;;;;;;;7.05;1.40;;;;;;;;;;4991974;28;20096;-70
2023/03/25 14:11:25;;;;;;;6.75;1.38;;;;;;;;;;4990941;28;20568;-70
2023/03/25 14:13:56;;;;;;;7.25;1.45;;;;;;;;;;4994361;28;20058;-70
2023/03/25 14:16:30;;;;;;;6.63;1.48;;;;;;;;;;4991616;28;20030;-70
2023/03/25 14:19:01;;;;;;;5.80;1.20;;;;;;;;;;4992387;28;20096;-70
2023/03/25 14:21:40;;;;;;;9.00;1.50;;;;;;;;;;4992330;28;20030;-69
2023/03/25 14:24:15;;;;;;;7.25;1.40;;;;;;;;;;4991904;28;20022;-71
2023/03/25 14:26:46;;;;;;;5.68;1.40;;;;;;;;;;4992247;28;20026;-70
2023/03/25 14:29:39;;;;;;;7.38;1.63;;;;;;;;;;4991775;28;20062;-69
2023/03/25 14:32:17;;;;;;;6.43;1.52;;;;;;;;;;4988668;28;20432;-69
2023/03/25 14:34:48;;;;;;;5.20;1.60;;;;;;;;;;4991880;28;20030;-71
2023/03/25 14:37:13;;;;;;;9.90;1.50;;;;;;;;;;4991775;28;20026;-70
2023/03/25 14:39:39;;;;;;;6.00;1.20;;;;;;;;;;4991209;28;20109;-72
2023/03/25 14:42:10;;;;;;;8.15;1.40;;;;;;;;;;4991523;28;20032;-71
2023/03/25 14:44:53;;;;;;;7.20;1.27;;;;;;;;;;4991553;28;20026;-71
2023/03/25 14:47:24;;;;;;;9.65;1.98;;;;;;;;;;4991438;28;20035;-71
2023/03/25 14:50:03;;;;;;;8.77;1.70;;;;;;;;;;4990184;28;20034;-73
2023/03/25 14:52:36;;;;;;;7.13;1.52;;;;;;;;;;4991157;28;20050;-71
2023/03/25 14:55:09;;;;;;;6.38;1.77;;;;;;;;;;4991403;28;20022;-71
2023/03/25 14:57:40;;;;;;;7.28;1.45;;;;;;;;;;4991286;28;20023;-72
2023/03/25 15:00:12;;;;;;;8.18;1.60;;;;;;;;;;4991074;28;20030;-71
2023/03/25 15:02:40;;;;;;;6.18;1.48;;;;;;;;;;4991162;28;20027;-74
2023/03/25 15:05:08;;;;;;;6.40;1.27;;;;;;;;;;4991217;28;20026;-70
2023/03/25 15:07:50;;;;;;;12.30;1.58;;;;;;;;;;4991024;28;20022;-71
2023/03/25 15:10:30;;;;;;;9.45;1.50;;;;;;;;;;4990997;28;20030;-72
2023/03/25 15:13:15;;;;;;;10.32;1.83;;;;;;;;;;4991055;28;20030;-72